Time;durP1;ratioP1;P1;durP2;ratioP2;P2;SDS_P1;SDS_P2;PMS_P1;PMS_P2;Temp;Humidity;BMP_temperature;BMP_pressure;BME280_temperature;BME280_humidity;BME280_pressure;Samples;Min_cycle;Max_cycle;Signal;HPM_P1;HPM_P2
2023/03/19 00:05:26;;;;;;;9.70;5.15;;;35.70;99.90;;;;;;5043951;28;20214;-72
2023/03/19 00:07:54;;;;;;;8.43;4.60;;;36.50;99.90;;;;;;5040763;28;20208;-72
2023/03/19 00:10:21;;;;;;;12.73;4.93;;;36.80;99.90;;;;;;5034032;28;20665;-73
2023/03/19 00:12:49;;;;;;;12.75;4.75;;;35.90;99.90;;;;;;5033742;28;20639;-73
2023/03/19 00:15:16;;;;;;;11.13;4.82;;;36.10;99.90;;;;;;5041812;28;20232;-73
2023/03/19 00:17:43;;;;;;;8.68;4.80;;;36.70;99.90;;;;;;5072678;28;20183;-73
2023/03/19 00:20:13;;;;;;;8.23;4.20;;;36.90;99.90;;;;;;5067654;28;20173;-73
2023/03/19 00:22:41;;;;;;;8.57;4.40;;;37.10;99.90;;;;;;5055016;28;20187;-74
2023/03/19 00:25:09;;;;;;;15.52;4.85;;;37.10;99.90;;;;;;5060044;28;20220;-75
2023/03/19 00:27:41;;;;;;;11.57;4.88;;;36.90;99.90;;;;;;5070597;28;20192;-73
2023/03/19 00:30:10;;;;;;;13.95;5.15;;;37.50;99.90;;;;;;5070448;28;20184;-74
2023/03/19 00:32:38;;;;;;;15.48;5.10;;;37.30;99.90;;;;;;5072535;28;20979;-73
2023/03/19 00:35:06;;;;;;;12.68;5.55;;;37.30;99.90;;;;;;5071282;28;20223;-74
2023/03/19 00:37:35;;;;;;;9.32;4.55;;;37.50;99.90;;;;;;5032871;28;20652;-74
2023/03/19 00:40:03;;;;;;;13.48;5.05;;;38.00;99.90;;;;;;5033462;28;20181;-74
2023/03/19 00:42:31;;;;;;;14.05;5.18;;;38.10;99.90;;;;;;5033391;28;20255;-74
2023/03/19 00:44:59;;;;;;;11.88;4.97;;;38.10;99.90;;;;;;5033707;28;20950;-74
2023/03/19 00:47:26;;;;;;;20.77;5.78;;;37.90;99.90;;;;;;5061786;28;20191;-73
2023/03/19 00:49:54;;;;;;;24.63;6.25;;;37.20;99.90;;;;;;5057484;28;20193;-76
2023/03/19 00:52:21;;;;;;;7.50;4.72;;;37.00;99.90;;;;;;5034508;28;20180;-74
2023/03/19 00:54:49;;;;;;;10.35;4.72;;;37.30;99.90;;;;;;5033342;28;20209;-75
2023/03/19 00:57:17;;;;;;;10.75;4.70;;;38.10;99.90;;;;;;5034007;28;20276;-74
2023/03/19 00:59:44;;;;;;;16.27;5.28;;;38.70;99.90;;;;;;5034338;28;20205;-73
2023/03/19 01:02:12;;;;;;;9.40;4.65;;;38.40;99.90;;;;;;5037528;28;20177;-73
2023/03/19 01:08:01;;;;;;;12.82;4.93;;;38.80;99.90;;;;;;5074740;28;20286;-73
2023/03/19 01:10:28;;;;;;;15.23;5.00;;;39.50;99.90;;;;;;5082506;28;20180;-74
2023/03/19 01:12:56;;;;;;;15.05;5.72;;;39.40;99.90;;;;;;5079473;28;20231;-75
2023/03/19 01:15:23;;;;;;;10.68;5.18;;;39.40;99.90;;;;;;5063688;28;20193;-74
2023/03/19 01:17:51;;;;;;;12.70;5.40;;;39.10;99.90;;;;;;5038484;28;20176;-74
2023/03/19 01:20:19;;;;;;;8.80;4.82;;;39.20;99.90;;;;;;5034053;28;20180;-75
2023/03/19 01:22:46;;;;;;;9.20;4.75;;;39.10;99.90;;;;;;5040821;28;20274;-76
2023/03/19 01:25:14;;;;;;;10.68;5.07;;;39.30;99.90;;;;;;5073836;28;20176;-74
2023/03/19 01:27:42;;;;;;;11.98;5.03;;;39.80;99.90;;;;;;5072871;28;20191;-75
2023/03/19 01:30:10;;;;;;;10.68;5.05;;;39.70;98.10;;;;;;5072948;28;20727;-74
2023/03/19 01:32:37;;;;;;;9.68;4.75;;;39.70;99.80;;;;;;5071576;28;20218;-73
2023/03/19 01:38:26;;;;;;;11.25;5.50;;;39.80;94.20;;;;;;5032103;28;20191;-73
2023/03/19 01:40:54;;;;;;;14.20;5.63;;;40.10;93.70;;;;;;5045427;28;20191;-73
2023/03/19 01:43:24;;;;;;;21.55;5.95;;;40.40;91.70;;;;;;5071110;28;20176;-73
2023/03/19 01:46:06;;;;;;;13.45;5.95;;;40.40;91.70;;;;;;5062046;28;20285;-73
2023/03/19 01:48:39;;;;;;;18.27;5.53;;;40.70;88.40;;;;;;5052290;28;20180;-73
2023/03/19 01:51:09;;;;;;;12.13;5.93;;;40.00;85.60;;;;;;5052184;28;20176;-72
2023/03/19 01:53:39;;;;;;;10.20;5.43;;;39.80;90.20;;;;;;5052413;28;20555;-73
2023/03/19 01:56:23;;;;;;;9.27;5.53;;;40.20;82.40;;;;;;5052050;28;20225;-73
2023/03/19 01:58:55;;;;;;;14.85;5.95;;;40.00;87.50;;;;;;5047065;28;20181;-73
2023/03/19 02:01:23;;;;;;;8.80;5.43;;;40.30;94.80;;;;;;5064036;28;20177;-72
2023/03/19 02:03:53;;;;;;;43.45;6.70;;;41.00;77.00;;;;;;5058296;28;20279;-73
2023/03/19 02:06:21;;;;;;;16.88;5.95;;;41.10;76.20;;;;;;5071931;28;20172;-73
2023/03/19 02:08:50;;;;;;;13.77;5.60;;;41.00;74.10;;;;;;5070606;28;20191;-74
2023/03/19 02:11:18;;;;;;;14.38;5.38;;;41.30;68.40;;;;;;5071734;28;20183;-73
2023/03/19 02:13:46;;;;;;;14.02;5.47;;;40.80;65.00;;;;;;5044984;28;20396;-73
2023/03/19 02:16:14;;;;;;;10.43;5.65;;;40.30;71.10;;;;;;5031952;28;20216;-72
2023/03/19 02:18:42;;;;;;;18.35;5.40;;;40.60;68.20;;;;;;5031854;28;20185;-73
2023/03/19 02:21:10;;;;;;;11.98;5.25;;;40.70;61.80;;;;;;5031765;28;20658;-73
2023/03/19 02:23:55;;;;;;;15.18;5.60;;;40.90;62.60;;;;;;5041516;28;20243;-73
2023/03/19 02:29:44;;;;;;;15.73;4.60;;;41.10;58.40;;;;;;5038175;28;20297;-72
2023/03/19 02:32:12;;;;;;;11.77;4.50;;;41.70;54.00;;;;;;5050188;28;20180;-73
2023/03/19 02:34:41;;;;;;;14.73;4.78;;;42.00;49.40;;;;;;5066158;28;20215;-73
2023/03/19 02:37:18;;;;;;;11.23;4.70;;;41.90;46.70;;;;;;5046633;28;20176;-73
2023/03/19 02:40:03;;;;;;;13.18;4.38;;;41.90;48.60;;;;;;5068055;28;20199;-72
2023/03/19 02:42:30;;;;;;;14.23;4.35;;;41.30;38.50;;;;;;5070264;28;20172;-72
2023/03/19 02:44:58;;;;;;;13.23;4.30;;;41.40;38.00;;;;;;5064497;28;20187;-72
2023/03/19 02:47:27;;;;;;;24.10;4.95;;;41.10;37.50;;;;;;5075071;28;20659;-72
2023/03/19 02:49:55;;;;;;;10.52;3.90;;;40.60;35.30;;;;;;5074231;28;20180;-72
2023/03/19 02:52:23;;;;;;;19.45;3.17;;;41.00;30.70;;;;;;5070500;28;20598;-72
2023/03/19 02:54:50;;;;;;;5.35;2.25;;;40.90;27.50;;;;;;5062041;28;20224;-72
2023/03/19 02:57:19;;;;;;;9.82;2.67;;;41.20;25.40;;;;;;5046250;28;20181;-72
2023/03/19 02:59:50;;;;;;;5.70;1.60;;;41.00;26.90;;;;;;5035778;28;20276;-72
2023/03/19 03:02:18;;;;;;;5.43;1.85;;;40.80;22.80;;;;;;5035503;28;20227;-72
2023/03/19 03:04:46;;;;;;;8.32;2.58;;;41.10;22.80;;;;;;5043754;28;20243;-72
2023/03/19 03:07:14;;;;;;;5.40;3.17;;;41.10;23.50;;;;;;5055294;28;20242;-72
2023/03/19 03:09:41;;;;;;;7.13;2.90;;;41.10;27.60;;;;;;5063254;28;20187;-72
2023/03/19 03:12:12;;;;;;;4.63;2.83;;;41.50;32.20;;;;;;5052330;28;20177;-72
2023/03/19 03:14:40;;;;;;;6.32;2.40;;;41.80;33.20;;;;;;5055368;28;20177;-72
2023/03/19 03:17:08;;;;;;;2.95;2.30;;;42.20;28.90;;;;;;5055122;28;20526;-72
2023/03/19 03:19:36;;;;;;;9.00;2.60;;;42.20;24.50;;;;;;5053736;28;20207;-72
2023/03/19 03:22:04;;;;;;;4.28;2.08;;;41.50;25.20;;;;;;5054931;28;20181;-72
2023/03/19 03:24:32;;;;;;;7.47;2.10;;;41.70;26.80;;;;;;5053755;28;20704;-72
2023/03/19 03:27:00;;;;;;;8.25;2.83;;;42.00;27.90;;;;;;5055000;28;20185;-72
2023/03/19 03:29:28;;;;;;;5.38;2.15;;;41.90;26.30;;;;;;5052635;28;20188;-72
2023/03/19 03:31:56;;;;;;;3.65;1.95;;;42.50;24.90;;;;;;5044714;28;20177;-72
2023/03/19 03:34:23;;;;;;;4.68;1.75;;;42.60;20.50;;;;;;5054922;28;20191;-72
2023/03/19 03:36:52;;;;;;;2.85;1.50;;;42.50;21.80;;;;;;5054923;28;20629;-72
2023/03/19 03:39:20;;;;;;;5.40;1.90;;;42.50;20.50;;;;;;5054974;28;20187;-72
2023/03/19 03:41:47;;;;;;;4.68;2.05;;;42.50;19.20;;;;;;5054563;28;20165;-72
2023/03/19 03:44:16;;;;;;;5.40;1.65;;;42.60;18.90;;;;;;5054535;28;20262;-72
2023/03/19 03:46:44;;;;;;;3.47;1.30;;;42.70;19.00;;;;;;5060520;28;20257;-72
2023/03/19 03:49:12;;;;;;;9.57;1.63;;;42.80;17.20;;;;;;5044472;28;20262;-72
2023/03/19 03:51:40;;;;;;;6.93;1.90;;;42.80;13.60;;;;;;5036888;28;20650;-72
2023/03/19 03:54:08;;;;;;;5.75;1.80;;;42.80;17.60;;;;;;5034485;28;20181;-72
2023/03/19 03:56:36;;;;;;;4.93;1.80;;;42.70;18.10;;;;;;5034549;28;20166;-72
2023/03/19 03:59:04;;;;;;;5.43;1.98;;;43.00;13.60;;;;;;5071171;28;20188;-72
2023/03/19 04:01:32;;;;;;;4.20;2.05;;;42.50;13.00;;;;;;5038750;28;20186;-73
2023/03/19 04:04:00;;;;;;;6.57;1.80;;;42.50;12.10;;;;;;5034174;28;20312;-72
2023/03/19 04:06:28;;;;;;;4.60;1.77;;;42.60;14.20;;;;;;5034442;28;20177;-72
2023/03/19 04:08:56;;;;;;;4.22;1.60;;;42.70;14.80;;;;;;5033843;28;20185;-71
2023/03/19 04:11:24;;;;;;;5.95;1.67;;;42.80;13.60;;;;;;5034087;28;20181;-72
2023/03/19 04:13:55;;;;;;;3.17;1.90;;;42.60;14.20;;;;;;5033830;28;20236;-72
2023/03/19 04:16:23;;;;;;;7.00;2.05;;;42.30;14.80;;;;;;5051455;28;20180;-72
2023/03/19 04:18:51;;;;;;;5.50;2.10;;;42.30;16.70;;;;;;5034364;28;20710;-71
2023/03/19 04:21:20;;;;;;;7.00;2.35;;;42.20;15.50;;;;;;5071725;28;20217;-72
2023/03/19 04:23:48;;;;;;;3.67;2.05;;;41.90;11.70;;;;;;5073946;28;20239;-72
2023/03/19 04:26:15;;;;;;;4.15;1.77;;;41.50;13.50;;;;;;5073815;28;20211;-72
2023/03/19 04:28:43;;;;;;;4.07;1.33;;;41.40;10.90;;;;;;5072527;28;20573;-72
2023/03/19 04:31:11;;;;;;;3.70;1.80;;;41.40;11.40;;;;;;5069489;28;20183;-72
2023/03/19 04:33:39;;;;;;;5.13;1.95;;;41.50;13.50;;;;;;5071950;28;20267;-72
2023/03/19 04:36:07;;;;;;;4.93;1.98;;;41.40;9.30;;;;;;5073671;28;20187;-73
2023/03/19 04:38:35;;;;;;;8.40;2.00;;;41.20;11.90;;;;;;5073514;28;20172;-73
2023/03/19 04:41:03;;;;;;;2.58;1.90;;;41.10;11.10;;;;;;5072411;28;20230;-72
2023/03/19 04:43:31;;;;;;;5.90;1.80;;;41.20;12.40;;;;;;5060700;28;20268;-72
2023/03/19 04:45:59;;;;;;;10.95;6.20;;;41.20;11.20;;;;;;5053296;28;20191;-72
2023/03/19 04:48:27;;;;;;;9.45;6.70;;;40.90;36.10;;;;;;5053418;28;20191;-72
2023/03/19 04:50:56;;;;;;;9.98;6.57;;;40.40;55.00;;;;;;5053454;28;20199;-73
2023/03/19 04:53:24;;;;;;;9.80;6.25;;;40.10;68.50;;;;;;5052164;28;20553;-72
2023/03/19 04:55:52;;;;;;;9.35;6.70;;;40.00;82.60;;;;;;5052298;28;20185;-72
2023/03/19 04:58:20;;;;;;;12.23;6.47;;;39.80;81.10;;;;;;5061943;28;20184;-72
2023/03/19 05:00:48;;;;;;;8.85;6.47;;;39.40;89.60;;;;;;5072584;28;20278;-72
2023/03/19 05:03:16;;;;;;;13.13;7.22;;;39.40;92.00;;;;;;5071007;28;20188;-72
2023/03/19 05:05:44;;;;;;;10.63;6.57;;;39.30;94.60;;;;;;5072428;28;20179;-72
2023/03/19 05:08:12;;;;;;;10.88;6.63;;;39.20;96.80;;;;;;5072376;28;20630;-72
2023/03/19 05:10:40;;;;;;;12.77;7.80;;;39.00;99.30;;;;;;5072310;28;20183;-72
2023/03/19 05:13:08;;;;;;;13.38;7.25;;;38.90;99.90;;;;;;5071813;28;20343;-72
2023/03/19 05:15:36;;;;;;;12.82;6.70;;;38.60;99.90;;;;;;5072409;28;20483;-72
2023/03/19 05:18:04;;;;;;;9.57;7.13;;;38.30;99.90;;;;;;5072046;28;20172;-72
2023/03/19 05:20:36;;;;;;;17.38;6.93;;;38.40;99.90;;;;;;5072216;28;20179;-72
2023/03/19 05:23:05;;;;;;;11.27;6.40;;;38.30;99.90;;;;;;5061701;28;20192;-72
2023/03/19 05:25:34;;;;;;;7.95;5.50;;;38.20;99.30;;;;;;5052304;28;20192;-72
2023/03/19 05:28:04;;;;;;;9.05;6.00;;;38.00;99.90;;;;;;5051144;28;20241;-72
2023/03/19 05:30:32;;;;;;;8.00;4.90;;;37.70;98.10;;;;;;5040817;28;20264;-72
2023/03/19 05:33:00;;;;;;;8.63;5.47;;;37.50;99.90;;;;;;5051050;28;20193;-72
2023/03/19 05:35:29;;;;;;;10.13;5.43;;;37.10;99.90;;;;;;5051789;28;20168;-72
2023/03/19 05:37:57;;;;;;;11.15;5.70;;;37.00;99.90;;;;;;5051990;28;20397;-72
2023/03/19 05:40:25;;;;;;;9.32;5.60;;;37.00;99.90;;;;;;5050834;28;20189;-72
2023/03/19 05:42:53;;;;;;;9.88;5.63;;;36.70;99.90;;;;;;5052199;28;20185;-72
2023/03/19 05:45:21;;;;;;;13.02;5.75;;;36.70;99.90;;;;;;5051532;28;20215;-71
2023/03/19 05:47:49;;;;;;;9.13;5.93;;;36.40;99.90;;;;;;5051330;28;20921;-72
2023/03/19 05:50:18;;;;;;;7.30;5.63;;;36.40;99.90;;;;;;5051782;28;20665;-72
2023/03/19 05:52:46;;;;;;;7.38;5.40;;;36.30;99.90;;;;;;5051801;28;20181;-72
2023/03/19 05:55:14;;;;;;;10.30;5.70;;;36.30;99.90;;;;;;5050665;28;20710;-72
2023/03/19 05:57:41;;;;;;;7.90;5.88;;;36.30;99.90;;;;;;5051591;28;20185;-72
2023/03/19 06:00:11;;;;;;;11.57;5.93;;;36.40;99.90;;;;;;5061884;28;20194;-72
2023/03/19 06:02:39;;;;;;;9.43;5.00;;;36.10;99.90;;;;;;5071673;28;20180;-73
2023/03/19 06:05:07;;;;;;;10.88;5.90;;;36.00;99.90;;;;;;5071637;28;20231;-72
2023/03/19 06:07:35;;;;;;;10.15;5.40;;;35.90;99.90;;;;;;5071801;28;20172;-72
2023/03/19 06:10:03;;;;;;;9.15;5.68;;;35.90;99.90;;;;;;5060532;28;20672;-72
2023/03/19 06:12:31;;;;;;;7.97;5.20;;;35.80;99.90;;;;;;5046680;28;20258;-72
2023/03/19 06:14:59;;;;;;;8.45;5.57;;;35.70;99.90;;;;;;5031800;28;20264;-73
2023/03/19 06:17:27;;;;;;;9.90;5.82;;;35.60;99.90;;;;;;5031874;28;20673;-73
2023/03/19 06:19:54;;;;;;;11.27;5.60;;;35.50;99.90;;;;;;5044338;28;20191;-73
2023/03/19 06:22:22;;;;;;;10.15;5.90;;;35.50;99.90;;;;;;5071152;28;20565;-73
2023/03/19 06:24:50;;;;;;;10.27;5.47;;;35.40;99.90;;;;;;5071396;28;20294;-73
2023/03/19 06:27:18;;;;;;;11.68;5.50;;;35.30;99.90;;;;;;5071323;28;20182;-73
2023/03/19 06:29:46;;;;;;;9.98;5.45;;;35.30;99.90;;;;;;5068294;28;20187;-73
2023/03/19 06:32:14;;;;;;;6.35;4.82;;;35.40;99.90;;;;;;5071474;28;20176;-73
2023/03/19 06:34:41;;;;;;;8.27;6.28;;;35.30;99.90;;;;;;5071151;28;20603;-73
2023/03/19 06:37:09;;;;;;;7.60;5.53;;;35.10;99.90;;;;;;5048206;28;20223;-72
2023/03/19 06:39:38;;;;;;;10.00;5.80;;;34.80;99.90;;;;;;5037724;28;20195;-72
2023/03/19 06:42:06;;;;;;;11.73;5.13;;;34.70;99.90;;;;;;5071258;28;20202;-73
2023/03/19 06:44:34;;;;;;;7.85;5.53;;;34.70;99.90;;;;;;5071664;28;20218;-72
2023/03/19 06:47:01;;;;;;;6.75;5.07;;;34.50;99.90;;;;;;5070375;28;20229;-72
2023/03/19 06:49:29;;;;;;;11.05;5.30;;;34.50;99.90;;;;;;5040731;28;20227;-72
2023/03/19 06:51:57;;;;;;;10.48;5.30;;;34.40;99.90;;;;;;5031162;28;20208;-72
2023/03/19 06:54:25;;;;;;;9.27;5.10;;;34.30;99.90;;;;;;5031093;28;20201;-73
2023/03/19 06:56:52;;;;;;;11.13;5.57;;;34.30;99.90;;;;;;5031372;28;20260;-73
2023/03/19 06:59:20;;;;;;;9.18;5.47;;;34.00;99.90;;;;;;5030773;28;20696;-73
2023/03/19 07:01:48;;;;;;;5.95;4.63;;;33.70;99.90;;;;;;5031093;28;20243;-73
2023/03/19 07:04:36;;;;;;;9.55;5.20;;;33.80;99.90;;;;;;5031060;28;20302;-72
2023/03/19 07:07:04;;;;;;;14.52;5.20;;;33.80;99.90;;;;;;5045030;28;20189;-73
2023/03/19 07:09:32;;;;;;;11.23;5.45;;;33.60;99.90;;;;;;5034684;28;20225;-73
2023/03/19 07:12:00;;;;;;;10.82;5.70;;;33.50;99.90;;;;;;5070847;28;20172;-73
2023/03/19 07:14:28;;;;;;;8.00;5.32;;;33.40;99.90;;;;;;5071130;28;20183;-71
2023/03/19 07:16:56;;;;;;;9.35;6.03;;;33.10;99.90;;;;;;5067047;28;20191;-72
2023/03/19 07:19:24;;;;;;;10.50;5.63;;;32.80;99.90;;;;;;5053281;28;20262;-71
2023/03/19 07:21:52;;;;;;;12.65;6.20;;;32.40;99.90;;;;;;5070772;28;20273;-71
2023/03/19 07:24:20;;;;;;;11.55;5.50;;;32.10;99.90;;;;;;5051611;28;20224;-72
2023/03/19 07:26:48;;;;;;;8.15;5.07;;;31.80;99.90;;;;;;5051134;28;20196;-72
2023/03/19 07:29:16;;;;;;;7.28;5.50;;;31.70;99.90;;;;;;5042940;28;20239;-72
2023/03/19 07:31:44;;;;;;;14.32;5.60;;;31.50;99.90;;;;;;5066153;28;20730;-72
2023/03/19 07:34:12;;;;;;;17.65;5.90;;;31.40;99.90;;;;;;5053681;28;20184;-73
2023/03/19 07:36:40;;;;;;;11.23;6.32;;;31.10;99.90;;;;;;5054187;28;20180;-72
2023/03/19 07:39:07;;;;;;;10.45;6.40;;;30.90;99.90;;;;;;5054480;28;20267;-73
2023/03/19 07:41:35;;;;;;;11.40;6.37;;;30.60;99.90;;;;;;5059160;28;20571;-73
2023/03/19 07:44:03;;;;;;;10.88;6.15;;;30.40;99.90;;;;;;5072814;28;20214;-73
2023/03/19 07:46:31;;;;;;;11.13;6.20;;;30.00;99.90;;;;;;5074191;28;20175;-72
2023/03/19 07:49:02;;;;;;;9.30;5.90;;;30.00;99.90;;;;;;5074131;28;20229;-73
2023/03/19 07:51:30;;;;;;;13.77;5.88;;;29.90;99.90;;;;;;5073829;28;20172;-72
2023/03/19 07:53:58;;;;;;;11.90;6.37;;;29.80;99.90;;;;;;5051787;28;20240;-71
2023/03/19 07:56:26;;;;;;;16.23;6.97;;;29.60;99.90;;;;;;5053621;28;20219;-73
2023/03/19 07:58:53;;;;;;;13.20;5.83;;;29.40;99.90;;;;;;5053961;28;20176;-74
2023/03/19 08:01:21;;;;;;;11.63;7.17;;;29.40;99.90;;;;;;5053878;28;20684;-73
2023/03/19 08:03:49;;;;;;;13.70;8.17;;;29.20;99.90;;;;;;5050278;28;20248;-73
2023/03/19 08:06:17;;;;;;;12.67;8.17;;;29.10;99.90;;;;;;5034038;28;20177;-72
2023/03/19 08:08:44;;;;;;;17.43;8.30;;;28.90;99.90;;;;;;5035640;28;20181;-72
2023/03/19 08:11:12;;;;;;;14.77;8.83;;;28.70;99.90;;;;;;5054589;28;20545;-73
2023/03/19 08:13:41;;;;;;;15.33;8.70;;;28.60;99.90;;;;;;5052525;28;20570;-74
2023/03/19 08:16:09;;;;;;;16.70;8.33;;;28.40;99.90;;;;;;5049891;28;20187;-72
2023/03/19 08:18:37;;;;;;;27.17;9.40;;;28.30;99.90;;;;;;5062536;28;20233;-71
2023/03/19 08:21:05;;;;;;;12.73;8.90;;;28.20;99.90;;;;;;5045916;28;20206;-72
2023/03/19 08:23:34;;;;;;;14.57;8.10;;;28.00;99.90;;;;;;5054780;28;20211;-73
2023/03/19 08:26:02;;;;;;;13.90;8.20;;;27.90;99.90;;;;;;5056078;28;20192;-72
2023/03/19 08:28:30;;;;;;;11.50;7.83;;;27.80;99.90;;;;;;5050734;28;20268;-72
2023/03/19 08:30:57;;;;;;;11.80;7.57;;;27.70;99.90;;;;;;5034330;28;20204;-73
2023/03/19 08:33:25;;;;;;;18.40;8.20;;;27.60;99.90;;;;;;5064524;28;20179;-72
2023/03/19 08:35:53;;;;;;;13.30;7.87;;;27.50;99.90;;;;;;5055435;28;20219;-72
2023/03/19 08:38:21;;;;;;;19.57;8.70;;;27.50;99.90;;;;;;5040716;28;20193;-73
2023/03/19 08:40:49;;;;;;;12.73;8.00;;;27.30;99.90;;;;;;5034510;28;20265;-72
2023/03/19 08:43:16;;;;;;;14.17;7.77;;;27.20;99.90;;;;;;5058063;28;20230;-71
2023/03/19 08:45:44;;;;;;;17.07;8.37;;;27.10;99.90;;;;;;5074257;28;20224;-72
2023/03/19 08:48:12;;;;;;;20.50;8.97;;;27.00;99.90;;;;;;5074299;28;20580;-72
2023/03/19 08:50:40;;;;;;;15.17;9.70;;;26.90;99.90;;;;;;5073933;28;20180;-73
2023/03/19 08:53:07;;;;;;;13.93;8.50;;;26.80;99.90;;;;;;5072704;28;20215;-72
2023/03/19 08:55:35;;;;;;;16.23;8.70;;;26.80;99.90;;;;;;5074199;28;20266;-72
2023/03/19 08:58:03;;;;;;;15.30;8.73;;;26.70;99.90;;;;;;5034621;28;20186;-72
2023/03/19 09:00:34;;;;;;;20.13;9.93;;;26.60;99.90;;;;;;5033872;28;20185;-72
2023/03/19 09:03:02;;;;;;;18.30;9.30;;;26.50;99.90;;;;;;5070568;28;20184;-72
2023/03/19 09:05:30;;;;;;;18.97;8.93;;;26.50;99.90;;;;;;5072739;28;20218;-72
2023/03/19 09:07:58;;;;;;;18.30;9.40;;;26.50;99.90;;;;;;5073907;28;20201;-72
2023/03/19 09:10:25;;;;;;;14.23;8.70;;;26.40;99.90;;;;;;5072569;28;20581;-73
2023/03/19 09:12:53;;;;;;;25.03;8.87;;;26.40;99.90;;;;;;5056909;28;20224;-72
2023/03/19 09:15:21;;;;;;;14.33;8.77;;;26.30;99.90;;;;;;5073774;28;20179;-73
2023/03/19 09:17:49;;;;;;;23.10;9.03;;;26.30;99.90;;;;;;5058782;28;20208;-72
2023/03/19 09:20:17;;;;;;;18.53;8.47;;;26.20;99.90;;;;;;5051901;28;20274;-73
2023/03/19 09:22:45;;;;;;;20.60;8.70;;;26.20;99.90;;;;;;5071781;28;20191;-73
2023/03/19 09:25:13;;;;;;;24.87;9.60;;;26.20;99.90;;;;;;5072123;28;20217;-73
2023/03/19 09:27:40;;;;;;;23.30;9.63;;;26.20;99.90;;;;;;5072238;28;20184;-73
2023/03/19 09:30:09;;;;;;;20.93;9.13;;;26.20;99.90;;;;;;5073450;28;20203;-73
2023/03/19 09:32:37;;;;;;;26.33;8.93;;;26.20;99.90;;;;;;5071947;28;20179;-73
2023/03/19 09:35:05;;;;;;;24.43;7.87;;;25.90;99.90;;;;;;5073352;28;20231;-73
2023/03/19 09:37:33;;;;;;;35.77;8.60;;;26.00;99.90;;;;;;5055500;28;20184;-73
2023/03/19 09:40:03;;;;;;;29.40;8.37;;;25.90;99.90;;;;;;5053447;28;20176;-73
2023/03/19 09:42:37;;;;;;;30.20;9.73;;;25.80;99.90;;;;;;5053308;28;20207;-73
2023/03/19 09:45:12;;;;;;;28.13;9.23;;;25.70;99.90;;;;;;5052880;28;20299;-73
2023/03/19 09:47:42;;;;;;;38.13;8.63;;;25.70;99.90;;;;;;5041687;28;20225;-73
2023/03/19 09:50:15;;;;;;;35.93;8.30;;;25.70;99.90;;;;;;5071807;28;20176;-73
2023/03/19 09:52:48;;;;;;;30.97;8.13;;;25.70;99.90;;;;;;5071112;28;20238;-73
2023/03/19 09:55:37;;;;;;;30.47;7.50;;;25.60;99.90;;;;;;5049940;28;20216;-73
2023/03/19 09:58:15;;;;;;;38.87;8.60;;;25.60;99.90;;;;;;5076745;28;20187;-73
2023/03/19 10:00:46;;;;;;;32.53;8.27;;;25.50;99.90;;;;;;5071819;28;20208;-73
2023/03/19 10:03:23;;;;;;;35.13;8.40;;;25.50;99.90;;;;;;5073320;28;20260;-72
2023/03/19 10:06:00;;;;;;;31.50;7.47;;;25.50;99.90;;;;;;5073068;28;20183;-72
2023/03/19 10:09:06;;;;;;;29.80;8.17;;;25.40;99.90;;;;;;5065819;28;20179;-73
2023/03/19 10:12:04;;;;;;;30.33;7.07;;;25.40;99.90;;;;;;5048859;28;20196;-72
2023/03/19 10:15:11;;;;;;;32.63;7.90;;;25.30;99.90;;;;;;5071452;28;20298;-73
2023/03/19 10:18:08;;;;;;;27.97;7.83;;;25.30;99.90;;;;;;5071587;28;20176;-72
2023/03/19 10:20:48;;;;;;;30.47;8.30;;;25.30;99.90;;;;;;5064525;28;20203;-73
2023/03/19 10:23:34;;;;;;;33.53;8.87;;;25.20;99.90;;;;;;5071295;28;20182;-72
2023/03/19 10:26:04;;;;;;;36.23;8.37;;;25.10;99.90;;;;;;5060784;28;20233;-73
2023/03/19 10:28:32;;;;;;;38.30;9.17;;;25.10;99.90;;;;;;5062470;28;20186;-73
2023/03/19 10:31:16;;;;;;;37.27;9.27;;;25.10;99.90;;;;;;5072249;28;20182;-73
2023/03/19 10:34:18;;;;;;;33.57;8.77;;;25.00;99.90;;;;;;5072578;28;20184;-72
2023/03/19 10:40:34;;;;;;;41.80;9.17;;;25.00;99.90;;;;;;5029881;28;20716;-72
2023/03/19 10:43:22;;;;;;;37.03;8.37;;;24.90;99.90;;;;;;5032344;28;20318;-72
2023/03/19 10:49:15;;;;;;;36.23;9.63;;;24.90;99.90;;;;;;5071740;28;20199;-72
2023/03/19 10:51:46;;;;;;;41.30;8.97;;;24.90;99.90;;;;;;5052568;28;20189;-72
2023/03/19 10:54:25;;;;;;;34.50;8.63;;;24.90;99.90;;;;;;5049719;28;20264;-72
2023/03/19 10:56:59;;;;;;;49.33;9.33;;;24.90;99.90;;;;;;5052088;28;20203;-72
2023/03/19 10:59:37;;;;;;;44.47;9.37;;;24.90;99.90;;;;;;5052002;28;20189;-72
2023/03/19 11:02:16;;;;;;;34.30;8.43;;;24.80;99.90;;;;;;5051055;28;20271;-72
2023/03/19 11:04:45;;;;;;;38.13;9.00;;;24.80;99.90;;;;;;5048924;28;20681;-72
2023/03/19 11:07:16;;;;;;;40.27;9.87;;;24.80;99.90;;;;;;5051733;28;20541;-73
2023/03/19 11:09:51;;;;;;;45.00;9.90;;;24.70;99.90;;;;;;5081577;28;20189;-71
2023/03/19 11:12:19;;;;;;;40.53;8.90;;;24.80;99.90;;;;;;5060948;28;20677;-71
2023/03/19 11:14:52;;;;;;;39.30;9.03;;;24.80;99.90;;;;;;5072860;28;20192;-72
2023/03/19 11:17:36;;;;;;;26.03;7.77;;;24.80;99.90;;;;;;5060703;28;20210;-72
2023/03/19 11:20:23;;;;;;;34.97;8.90;;;24.80;99.90;;;;;;5054656;28;20207;-71
2023/03/19 11:22:53;;;;;;;34.33;9.40;;;24.70;99.90;;;;;;5071486;28;20179;-72
2023/03/19 11:25:48;;;;;;;39.83;9.90;;;24.70;99.90;;;;;;5075737;28;20245;-72
2023/03/19 11:28:21;;;;;;;36.87;9.30;;;24.60;99.90;;;;;;5075326;28;20194;-72
2023/03/19 11:31:19;;;;;;;35.70;8.17;;;24.60;99.90;;;;;;5075632;28;20230;-72
2023/03/19 11:34:02;;;;;;;39.50;8.53;;;24.60;99.90;;;;;;5076003;28;20180;-72
2023/03/19 11:36:45;;;;;;;45.50;10.07;;;24.60;99.90;;;;;;5075876;28;20172;-72
2023/03/19 11:39:19;;;;;;;38.13;9.43;;;24.50;99.90;;;;;;5075785;28;20202;-72
2023/03/19 11:42:18;;;;;;;32.20;8.93;;;24.50;99.90;;;;;;5074302;28;20176;-72
2023/03/19 11:44:57;;;;;;;35.43;9.27;;;24.40;99.90;;;;;;5075315;28;20681;-72
2023/03/19 11:47:32;;;;;;;34.20;8.83;;;24.30;99.90;;;;;;5075451;28;20179;-71
2023/03/19 11:50:18;;;;;;;41.27;8.60;;;24.20;99.90;;;;;;5075217;28;20252;-72
2023/03/19 11:52:48;;;;;;;29.73;8.57;;;24.30;99.90;;;;;;5075635;28;20262;-72
2023/03/19 11:55:44;;;;;;;41.43;9.53;;;24.20;99.90;;;;;;5075083;28;20241;-72
2023/03/19 11:58:35;;;;;;;27.77;9.00;;;24.20;99.90;;;;;;5072564;28;20552;-71
2023/03/19 12:01:28;;;;;;;29.97;8.90;;;24.20;99.90;;;;;;5075358;28;20668;-72
2023/03/19 12:04:43;;;;;;;38.93;9.37;;;24.10;99.90;;;;;;5074887;28;20214;-72
2023/03/19 12:07:22;;;;;;;33.83;8.33;;;24.20;99.90;;;;;;5055624;28;20560;-72
2023/03/19 12:10:00;;;;;;;34.30;9.90;;;24.20;99.90;;;;;;5054760;28;20212;-72
2023/03/19 12:12:40;;;;;;;32.30;9.20;;;24.10;99.90;;;;;;5054956;28;20208;-72
2023/03/19 12:15:34;;;;;;;34.93;10.00;;;24.10;99.90;;;;;;5055047;28;20172;-72
2023/03/19 12:18:16;;;;;;;31.70;8.73;;;24.00;99.90;;;;;;5053130;28;20246;-72
2023/03/19 12:20:54;;;;;;;32.80;9.03;;;24.00;99.90;;;;;;5055015;28;20177;-72
2023/03/19 12:23:25;;;;;;;35.80;9.23;;;23.90;99.90;;;;;;5052201;28;20558;-71
2023/03/19 12:26:08;;;;;;;37.47;9.10;;;23.80;99.90;;;;;;5063558;28;20236;-72
2023/03/19 12:29:02;;;;;;;30.90;9.20;;;23.80;99.90;;;;;;5046697;28;20185;-71
2023/03/19 12:31:58;;;;;;;33.97;9.50;;;23.90;99.90;;;;;;5069793;28;20317;-72
2023/03/19 12:34:48;;;;;;;34.73;9.80;;;23.80;99.90;;;;;;5073518;28;20192;-72
2023/03/19 12:37:28;;;;;;;38.17;9.13;;;23.80;99.90;;;;;;5072041;28;20264;-71
2023/03/19 12:40:06;;;;;;;30.37;9.23;;;23.80;99.90;;;;;;5060939;28;20212;-72
2023/03/19 12:42:39;;;;;;;35.53;9.53;;;23.80;99.90;;;;;;5065453;28;20227;-72
2023/03/19 12:45:30;;;;;;;35.60;8.87;;;23.70;99.90;;;;;;5071245;28;20226;-72
2023/03/19 12:48:08;;;;;;;23.47;7.60;;;23.60;99.90;;;;;;5060021;28;20199;-71
2023/03/19 12:50:38;;;;;;;27.63;8.83;;;23.60;99.90;;;;;;5066827;28;20188;-72
2023/03/19 12:53:16;;;;;;;34.03;9.83;;;23.60;99.90;;;;;;5044893;28;20185;-72
2023/03/19 12:55:53;;;;;;;32.20;9.33;;;23.50;99.90;;;;;;5072736;28;20219;-72
2023/03/19 12:58:46;;;;;;;37.43;10.97;;;23.50;99.90;;;;;;5065019;28;20186;-72
2023/03/19 13:01:26;;;;;;;37.97;10.63;;;23.50;99.90;;;;;;5070936;28;20192;-72
2023/03/19 13:04:32;;;;;;;33.37;9.50;;;23.50;99.90;;;;;;5058260;28;20243;-72
2023/03/19 13:07:10;;;;;;;33.73;8.67;;;23.40;99.90;;;;;;5056664;28;20195;-73
2023/03/19 13:10:03;;;;;;;27.37;8.80;;;23.50;99.90;;;;;;5072742;28;20389;-72
2023/03/19 13:12:33;;;;;;;31.33;8.97;;;23.40;99.90;;;;;;5067837;28;20219;-72
2023/03/19 13:15:30;;;;;;;32.33;9.37;;;23.40;99.90;;;;;;5035519;28;20213;-72
2023/03/19 13:18:28;;;;;;;43.83;9.90;;;23.40;99.90;;;;;;5033072;28;20212;-72
2023/03/19 13:21:18;;;;;;;33.07;8.17;;;23.30;99.90;;;;;;5045093;28;20195;-73
2023/03/19 13:23:48;;;;;;;32.23;9.17;;;23.30;99.90;;;;;;5036887;28;20208;-72
2023/03/19 13:26:17;;;;;;;29.97;8.73;;;23.30;99.90;;;;;;5059444;28;20241;-72